createdAt,value
2023-05-06T00:03:27.215Z,3
2023-05-06T00:13:32.782Z,4
2023-05-06T00:23:39.656Z,4
2023-05-06T00:33:45.454Z,3
2023-05-06T00:43:52.079Z,3
2023-05-06T00:53:59.062Z,2
2023-05-06T01:04:04.931Z,3
2023-05-06T01:14:10.242Z,5
2023-05-06T01:24:15.485Z,3
2023-05-06T01:34:23.484Z,5
2023-05-06T01:44:29.092Z,4
2023-05-06T01:54:35.527Z,5
2023-05-06T02:04:41.080Z,2
2023-05-06T02:14:46.125Z,3
2023-05-06T02:24:52.823Z,4
2023-05-06T02:34:58.906Z,3
2023-05-06T02:45:05.177Z,4
2023-05-06T02:55:12.210Z,4
2023-05-06T03:05:18.102Z,2
2023-05-06T03:15:24.048Z,5
2023-05-06T03:25:31.731Z,6
2023-05-06T03:35:39.254Z,2
2023-05-06T03:45:46.135Z,4
2023-05-06T03:55:52.384Z,3
2023-05-06T04:05:59.038Z,5
2023-05-06T04:16:05.023Z,4
2023-05-06T04:26:11.976Z,5
2023-05-06T04:36:17.208Z,5
2023-05-06T04:46:24.018Z,3
2023-05-06T04:56:29.103Z,3
2023-05-06T05:06:35.916Z,3
2023-05-06T05:16:43.440Z,6
2023-05-06T05:26:50.511Z,4
2023-05-06T05:36:55.948Z,3
2023-05-06T05:47:03.864Z,5
2023-05-06T05:57:08.125Z,5
2023-05-06T06:07:15.075Z,4
2023-05-06T06:17:22.378Z,4
2023-05-06T06:27:29.412Z,3
2023-05-06T06:37:38.342Z,4
2023-05-06T06:47:43.742Z,8
2023-05-06T06:57:49.665Z,3
2023-05-06T07:07:55.488Z,3
2023-05-06T07:18:01.595Z,6
2023-05-06T07:28:07.807Z,4
2023-05-06T07:38:13.551Z,5
2023-05-06T07:48:22.007Z,5
2023-05-06T07:58:24.336Z,5
2023-05-06T08:08:30.406Z,4
2023-05-06T08:18:59.471Z,5
2023-05-06T08:28:55.903Z,5
2023-05-06T08:38:59.130Z,5
2023-05-06T08:49:05.045Z,5
2023-05-06T08:59:12.774Z,6
2023-05-06T09:09:16.287Z,7
2023-05-06T09:19:23.838Z,4
2023-05-06T09:29:31.201Z,4
2023-05-06T09:39:36.357Z,6
2023-05-06T09:49:44.206Z,9
2023-05-06T09:59:48.641Z,5
2023-05-06T10:09:54.671Z,5
2023-05-06T10:20:02.571Z,8
2023-05-06T10:30:09.821Z,10
2023-05-06T10:40:17.306Z,9
2023-05-06T13:21:51.466Z,7
2023-05-06T13:42:05.508Z,9
2023-05-06T13:52:10.678Z,5
2023-05-06T14:12:23.396Z,7
2023-05-06T14:22:30.926Z,9
2023-05-06T14:32:38.338Z,7
2023-05-06T14:52:51.177Z,7
2023-05-06T15:02:57.682Z,9
2023-05-06T15:13:02.779Z,5
2023-05-06T15:23:10.172Z,8
2023-05-06T15:33:16.176Z,7
2023-05-06T15:43:23.946Z,8
2023-05-06T15:53:39.158Z,8
2023-05-06T16:03:47.719Z,7
2023-05-06T16:13:50.624Z,8
2023-05-06T16:23:56.737Z,8
2023-05-06T16:34:03.428Z,6
2023-05-06T16:44:10.628Z,8
2023-05-06T16:54:16.175Z,9
2023-05-06T17:04:22.644Z,7
2023-05-06T17:14:28.910Z,5
2023-05-06T17:24:35.632Z,5
2023-05-06T17:34:41.829Z,7
2023-05-06T17:44:47.783Z,5
2023-05-06T17:55:06.013Z,8
2023-05-06T18:05:10.111Z,9
2023-05-06T18:15:15.563Z,7
2023-05-06T18:25:23.660Z,9
2023-05-06T18:35:29.653Z,8
2023-05-06T18:45:37.753Z,7
2023-05-06T18:55:43.990Z,6
2023-05-06T19:05:51.921Z,7
2023-05-06T19:15:58.968Z,8
2023-05-06T19:26:06.362Z,8
2023-05-06T19:36:10.684Z,9
2023-05-06T19:46:18.163Z,7
2023-05-06T19:56:23.814Z,8
2023-05-06T20:06:28.990Z,10
2023-05-06T20:16:34.891Z,12
2023-05-06T20:26:41.025Z,8
2023-05-06T20:36:48.405Z,9
2023-05-06T20:46:54.545Z,10
2023-05-06T20:57:00.356Z,8
2023-05-06T21:07:04.557Z,9
2023-05-06T21:17:12.646Z,7
2023-05-06T21:27:19.106Z,9
2023-05-06T21:37:25.313Z,7
2023-05-06T21:47:33.054Z,6
2023-05-06T21:57:37.878Z,10
2023-05-06T22:07:45.115Z,7
2023-05-06T22:17:51.997Z,8
2023-05-06T22:27:58.635Z,8
2023-05-06T22:38:03.201Z,8
2023-05-06T22:48:08.551Z,9
2023-05-06T22:58:13.889Z,8
2023-05-06T23:08:18.465Z,7
2023-05-06T23:18:25.066Z,6
2023-05-06T23:28:32.242Z,8
2023-05-06T23:38:38.247Z,8
2023-05-06T23:48:44.552Z,7
2023-05-06T23:58:49.502Z,7
